sensor_id;sensor_type;location;lat;lon;timestamp;pressure;altitude;pressure_sealevel;temperature;humidity
12360;BME280;6244;51.460;7.090;2024-02-26T00:11:25;98877.84;;;5.35;86.21
12360;BME280;6244;51.460;7.090;2024-02-26T00:16:22;98868.72;;;5.28;85.72
12360;BME280;6244;51.460;7.090;2024-02-26T00:21:19;98872.81;;;5.32;85.92
12360;BME280;6244;51.460;7.090;2024-02-26T00:26:15;98881.44;;;5.32;86.69
12360;BME280;6244;51.460;7.090;2024-02-26T00:31:15;98872.44;;;5.24;88.19
12360;BME280;6244;51.460;7.090;2024-02-26T00:36:11;98868.16;;;5.23;89.15
12360;BME280;6244;51.460;7.090;2024-02-26T00:41:08;98875.47;;;5.16;88.74
12360;BME280;6244;51.460;7.090;2024-02-26T00:46:04;98862.03;;;5.24;88.35
12360;BME280;6244;51.460;7.090;2024-02-26T01:29:52;98877.63;;;5.24;86.36
12360;BME280;6244;51.460;7.090;2024-02-26T01:34:49;98881.81;;;5.26;86.05
12360;BME280;6244;51.460;7.090;2024-02-26T01:39:45;98879.97;;;5.28;85.26
12360;BME280;6244;51.460;7.090;2024-02-26T01:44:42;98870.66;;;5.24;85.35
12360;BME280;6244;51.460;7.090;2024-02-26T01:49:43;98880.06;;;5.27;85.65
12360;BME280;6244;51.460;7.090;2024-02-26T01:59:45;98876.72;;;5.25;85.78
12360;BME280;6244;51.460;7.090;2024-02-26T02:04:43;98881.25;;;5.21;85.26
12360;BME280;6244;51.460;7.090;2024-02-26T02:09:40;98884.50;;;5.25;85.62
12360;BME280;6244;51.460;7.090;2024-02-26T02:19:35;98887.44;;;5.19;85.46
12360;BME280;6244;51.460;7.090;2024-02-26T02:24:33;98872.53;;;5.07;86.04
12360;BME280;6244;51.460;7.090;2024-02-26T02:29:30;98886.03;;;5.13;86.03
12360;BME280;6244;51.460;7.090;2024-02-26T02:34:27;98889.56;;;5.12;86.29
12360;BME280;6244;51.460;7.090;2024-02-26T02:39:24;98892.25;;;5.11;86.32
12360;BME280;6244;51.460;7.090;2024-02-26T02:44:22;98890.75;;;5.07;86.43
12360;BME280;6244;51.460;7.090;2024-02-26T02:49:19;98883.63;;;5.10;86.05
12360;BME280;6244;51.460;7.090;2024-02-26T02:54:17;98893.66;;;5.16;85.55
12360;BME280;6244;51.460;7.090;2024-02-26T03:30:05;98902.47;;;5.14;88.91
12360;BME280;6244;51.460;7.090;2024-02-26T03:35:03;98896.22;;;5.02;91.22
12360;BME280;6244;51.460;7.090;2024-02-26T03:46:11;98899.41;;;4.91;96.02
12360;BME280;6244;51.460;7.090;2024-02-26T03:51:09;98886.69;;;4.87;97.41
12360;BME280;6244;51.460;7.090;2024-02-26T03:56:07;98891.19;;;4.83;98.43
12360;BME280;6244;51.460;7.090;2024-02-26T04:01:03;98897.41;;;4.81;99.07
12360;BME280;6244;51.460;7.090;2024-02-26T04:06:01;98893.41;;;4.75;99.43
12360;BME280;6244;51.460;7.090;2024-02-26T04:10:58;98884.03;;;4.72;100.00
12360;BME280;6244;51.460;7.090;2024-02-26T04:15:55;98884.16;;;4.69;100.00
12360;BME280;6244;51.460;7.090;2024-02-26T04:20:53;98892.88;;;4.68;100.00
12360;BME280;6244;51.460;7.090;2024-02-26T04:25:51;98889.72;;;4.63;100.00
12360;BME280;6244;51.460;7.090;2024-02-26T04:30:48;98883.09;;;4.58;100.00
12360;BME280;6244;51.460;7.090;2024-02-26T04:35:45;98893.41;;;4.59;100.00
12360;BME280;6244;51.460;7.090;2024-02-26T04:40:42;98890.13;;;4.56;100.00
12360;BME280;6244;51.460;7.090;2024-02-26T04:45:40;98888.72;;;4.50;100.00
12360;BME280;6244;51.460;7.090;2024-02-26T04:50:37;98911.25;;;4.50;100.00
12360;BME280;6244;51.460;7.090;2024-02-26T04:55:33;98925.75;;;4.54;100.00
12360;BME280;6244;51.460;7.090;2024-02-26T05:18:38;98934.28;;;4.40;100.00
12360;BME280;6244;51.460;7.090;2024-02-26T05:23:34;98934.28;;;4.40;100.00
12360;BME280;6244;51.460;7.090;2024-02-26T05:28:31;98949.69;;;4.43;100.00
12360;BME280;6244;51.460;7.090;2024-02-26T05:33:29;98943.75;;;4.41;100.00
12360;BME280;6244;51.460;7.090;2024-02-26T05:44:26;98949.69;;;4.43;100.00
12360;BME280;6244;51.460;7.090;2024-02-26T05:49:24;98961.75;;;4.44;100.00
12360;BME280;6244;51.460;7.090;2024-02-26T05:54:22;98956.72;;;4.41;100.00
12360;BME280;6244;51.460;7.090;2024-02-26T05:59:20;98962.00;;;4.39;100.00
12360;BME280;6244;51.460;7.090;2024-02-26T06:04:17;98964.25;;;4.30;100.00
12360;BME280;6244;51.460;7.090;2024-02-26T06:09:18;98964.25;;;4.30;100.00
12360;BME280;6244;51.460;7.090;2024-02-26T06:14:16;98978.88;;;4.31;100.00
12360;BME280;6244;51.460;7.090;2024-02-26T06:19:20;98975.63;;;4.27;100.00
12360;BME280;6244;51.460;7.090;2024-02-26T06:34:29;98987.94;;;4.24;100.00
12360;BME280;6244;51.460;7.090;2024-02-26T06:39:26;98988.44;;;4.30;100.00
12360;BME280;6244;51.460;7.090;2024-02-26T06:44:23;99000.28;;;4.36;100.00
12360;BME280;6244;51.460;7.090;2024-02-26T06:49:20;99008.81;;;4.38;100.00
12360;BME280;6244;51.460;7.090;2024-02-26T06:54:18;99009.00;;;4.35;100.00
12360;BME280;6244;51.460;7.090;2024-02-26T06:59:14;99014.94;;;4.37;100.00
12360;BME280;6244;51.460;7.090;2024-02-26T07:04:11;99014.09;;;4.36;100.00
12360;BME280;6244;51.460;7.090;2024-02-26T07:09:07;99014.09;;;4.36;100.00
12360;BME280;6244;51.460;7.090;2024-02-26T07:14:05;99022.66;;;4.38;100.00
12360;BME280;6244;51.460;7.090;2024-02-26T07:19:02;99027.75;;;4.40;100.00
12360;BME280;6244;51.460;7.090;2024-02-26T07:23:59;99039.75;;;4.42;100.00
12360;BME280;6244;51.460;7.090;2024-02-26T07:28:55;99043.94;;;4.45;100.00
12360;BME280;6244;51.460;7.090;2024-02-26T07:33:54;99049.81;;;4.49;100.00
12360;BME280;6244;51.460;7.090;2024-02-26T07:38:50;99050.66;;;4.49;100.00
12360;BME280;6244;51.460;7.090;2024-02-26T07:43:49;99059.88;;;4.55;100.00
12360;BME280;6244;51.460;7.090;2024-02-26T07:48:46;99056.28;;;4.57;100.00
12360;BME280;6244;51.460;7.090;2024-02-26T07:53:44;99067.50;;;4.58;100.00
12360;BME280;6244;51.460;7.090;2024-02-26T07:58:41;99067.50;;;4.58;100.00
12360;BME280;6244;51.460;7.090;2024-02-26T08:03:37;99083.88;;;4.60;100.00
12360;BME280;6244;51.460;7.090;2024-02-26T08:08:34;99088.25;;;4.59;100.00
12360;BME280;6244;51.460;7.090;2024-02-26T08:13:32;99088.16;;;4.61;100.00
12360;BME280;6244;51.460;7.090;2024-02-26T08:18:30;99093.94;;;4.66;100.00
12360;BME280;6244;51.460;7.090;2024-02-26T08:23:27;99096.38;;;4.69;100.00
12360;BME280;6244;51.460;7.090;2024-02-26T08:28:24;99098.84;;;4.72;100.00
12360;BME280;6244;51.460;7.090;2024-02-26T08:33:22;99103.94;;;4.74;100.00
12360;BME280;6244;51.460;7.090;2024-02-26T08:38:18;99105.53;;;4.76;100.00
12360;BME280;6244;51.460;7.090;2024-02-26T08:43:15;99101.84;;;4.80;100.00
12360;BME280;6244;51.460;7.090;2024-02-26T08:48:12;99100.09;;;4.81;100.00
12360;BME280;6244;51.460;7.090;2024-02-26T08:53:10;99093.22;;;4.80;100.00
12360;BME280;6244;51.460;7.090;2024-02-26T08:58:07;99104.53;;;4.79;100.00
12360;BME280;6244;51.460;7.090;2024-02-26T09:03:04;99106.22;;;4.80;100.00
12360;BME280;6244;51.460;7.090;2024-02-26T09:08:01;99112.25;;;4.80;100.00
12360;BME280;6244;51.460;7.090;2024-02-26T09:12:59;99124.22;;;4.83;100.00
12360;BME280;6244;51.460;7.090;2024-02-26T09:17:55;99126.91;;;4.81;100.00
12360;BME280;6244;51.460;7.090;2024-02-26T09:22:52;99139.91;;;4.81;100.00
12360;BME280;6244;51.460;7.090;2024-02-26T09:27:49;99139.06;;;4.81;100.00
12360;BME280;6244;51.460;7.090;2024-02-26T09:32:47;99137.19;;;4.84;100.00
12360;BME280;6244;51.460;7.090;2024-02-26T09:37:44;99148.47;;;4.83;100.00
12360;BME280;6244;51.460;7.090;2024-02-26T09:42:43;99161.53;;;4.82;100.00
12360;BME280;6244;51.460;7.090;2024-02-26T09:47:41;99164.69;;;4.88;100.00
12360;BME280;6244;51.460;7.090;2024-02-26T09:52:41;99163.75;;;4.89;100.00
12360;BME280;6244;51.460;7.090;2024-02-26T09:57:37;99162.25;;;4.85;100.00
12360;BME280;6244;51.460;7.090;2024-02-26T10:02:38;99168.03;;;4.90;100.00
12360;BME280;6244;51.460;7.090;2024-02-26T10:07:35;99178.03;;;4.98;100.00
12360;BME280;6244;51.460;7.090;2024-02-26T10:12:34;99184.75;;;5.02;100.00
12360;BME280;6244;51.460;7.090;2024-02-26T10:17:31;99178.88;;;4.98;100.00
12360;BME280;6244;51.460;7.090;2024-02-26T10:22:32;99188.19;;;5.03;100.00
12360;BME280;6244;51.460;7.090;2024-02-26T10:27:28;99198.03;;;5.13;100.00
12360;BME280;6244;51.460;7.090;2024-02-26T10:32:26;99203.75;;;5.20;100.00
12360;BME280;6244;51.460;7.090;2024-02-26T10:37:23;99223.72;;;5.19;100.00
12360;BME280;6244;51.460;7.090;2024-02-26T10:42:20;99228.78;;;5.22;100.00
12360;BME280;6244;51.460;7.090;2024-02-26T10:47:16;99235.66;;;5.23;100.00
12360;BME280;6244;51.460;7.090;2024-02-26T10:52:15;99242.28;;;5.29;100.00
12360;BME280;6244;51.460;7.090;2024-02-26T10:57:12;99237.75;;;5.32;100.00
12360;BME280;6244;51.460;7.090;2024-02-26T11:02:10;99241.88;;;5.37;100.00
12360;BME280;6244;51.460;7.090;2024-02-26T11:07:08;99244.31;;;5.40;100.00
12360;BME280;6244;51.460;7.090;2024-02-26T11:12:08;99247.50;;;5.45;100.00
12360;BME280;6244;51.460;7.090;2024-02-26T11:17:08;99253.63;;;5.44;100.00
12360;BME280;6244;51.460;7.090;2024-02-26T11:22:04;99256.09;;;5.47;100.00
12360;BME280;6244;51.460;7.090;2024-02-26T11:27:03;99256.78;;;5.50;100.00
12360;BME280;6244;51.460;7.090;2024-02-26T11:32:03;99265.41;;;5.51;100.00
12360;BME280;6244;51.460;7.090;2024-02-26T11:37:09;99253.06;;;5.54;100.00
12360;BME280;6244;51.460;7.090;2024-02-26T11:42:06;99256.97;;;5.63;100.00
12360;BME280;6244;51.460;7.090;2024-02-26T11:47:12;99254.94;;;5.68;100.00
12360;BME280;6244;51.460;7.090;2024-02-26T11:52:09;99258.75;;;5.78;100.00
12360;BME280;6244;51.460;7.090;2024-02-26T11:57:26;99265.69;;;6.11;100.00
12360;BME280;6244;51.460;7.090;2024-02-26T12:02:46;99262.91;;;6.14;100.00
12360;BME280;6244;51.460;7.090;2024-02-26T12:07:47;99257.03;;;6.10;100.00
12360;BME280;6244;51.460;7.090;2024-02-26T12:12:44;99271.81;;;6.10;100.00
12360;BME280;6244;51.460;7.090;2024-02-26T12:17:41;99282.06;;;6.13;100.00
12360;BME280;6244;51.460;7.090;2024-02-26T12:22:40;99285.41;;;6.15;100.00
12360;BME280;6244;51.460;7.090;2024-02-26T12:27:38;99288.03;;;6.15;100.00
12360;BME280;6244;51.460;7.090;2024-02-26T12:32:35;99295.91;;;6.13;100.00
12360;BME280;6244;51.460;7.090;2024-02-26T12:37:32;99295.75;;;6.16;100.00
12360;BME280;6244;51.460;7.090;2024-02-26T12:42:37;99289.22;;;6.09;100.00
12360;BME280;6244;51.460;7.090;2024-02-26T12:47:36;99294.16;;;6.14;100.00
12360;BME280;6244;51.460;7.090;2024-02-26T12:52:33;99298.44;;;5.99;100.00
12360;BME280;6244;51.460;7.090;2024-02-26T12:57:31;99307.50;;;5.92;100.00
12360;BME280;6244;51.460;7.090;2024-02-26T13:02:30;99302.97;;;5.96;100.00
12360;BME280;6244;51.460;7.090;2024-02-26T13:07:27;99312.22;;;6.01;100.00
12360;BME280;6244;51.460;7.090;2024-02-26T13:12:23;99324.22;;;6.04;100.00
12360;BME280;6244;51.460;7.090;2024-02-26T13:17:21;99333.88;;;6.02;100.00
12360;BME280;6244;51.460;7.090;2024-02-26T13:22:21;99348.75;;;6.00;100.00
12360;BME280;6244;51.460;7.090;2024-02-26T13:27:21;99353.13;;;6.15;100.00
12360;BME280;6244;51.460;7.090;2024-02-26T13:32:20;99368.38;;;6.23;100.00
12360;BME280;6244;51.460;7.090;2024-02-26T13:37:17;99375.47;;;6.19;100.00
12360;BME280;6244;51.460;7.090;2024-02-26T13:42:15;99376.81;;;6.10;100.00
12360;BME280;6244;51.460;7.090;2024-02-26T13:47:11;99384.09;;;6.04;100.00
12360;BME280;6244;51.460;7.090;2024-02-26T13:52:08;99372.94;;;6.02;100.00
12360;BME280;6244;51.460;7.090;2024-02-26T13:57:05;99374.63;;;6.03;100.00
12360;BME280;6244;51.460;7.090;2024-02-26T14:02:03;99384.09;;;6.04;100.00
12360;BME280;6244;51.460;7.090;2024-02-26T14:06:59;99392.59;;;6.07;100.00
12360;BME280;6244;51.460;7.090;2024-02-26T14:11:56;99388.31;;;6.06;100.00
12360;BME280;6244;51.460;7.090;2024-02-26T14:16:53;99391.34;;;5.99;100.00
12360;BME280;6244;51.460;7.090;2024-02-26T14:21:51;99406.63;;;6.05;100.00
12360;BME280;6244;51.460;7.090;2024-02-26T14:26:47;99417.97;;;6.04;100.00
12360;BME280;6244;51.460;7.090;2024-02-26T14:31:46;99428.53;;;6.01;100.00
12360;BME280;6244;51.460;7.090;2024-02-26T14:36:45;99424.00;;;6.04;100.00
12360;BME280;6244;51.460;7.090;2024-02-26T14:41:43;99438.72;;;6.05;100.00
12360;BME280;6244;51.460;7.090;2024-02-26T14:46:40;99435.25;;;6.05;100.00
12360;BME280;6244;51.460;7.090;2024-02-26T14:51:39;99447.16;;;6.10;100.00
12360;BME280;6244;51.460;7.090;2024-02-26T14:56:36;99457.41;;;6.13;100.00
12360;BME280;6244;51.460;7.090;2024-02-26T15:01:34;99456.94;;;6.23;100.00
12360;BME280;6244;51.460;7.090;2024-02-26T15:06:30;99459.63;;;6.21;99.74
12360;BME280;6244;51.460;7.090;2024-02-26T15:11:27;99470.34;;;6.15;98.44
12360;BME280;6244;51.460;7.090;2024-02-26T15:16:23;99477.75;;;6.23;97.62
12360;BME280;6244;51.460;7.090;2024-02-26T15:21:21;99488.41;;;6.18;97.62
12360;BME280;6244;51.460;7.090;2024-02-26T15:26:18;99492.00;;;6.15;96.31
12360;BME280;6244;51.460;7.090;2024-02-26T15:31:15;99510.50;;;6.11;96.04
12360;BME280;6244;51.460;7.090;2024-02-26T15:36:12;99512.25;;;6.10;96.31
12360;BME280;6244;51.460;7.090;2024-02-26T15:41:12;99523.59;;;6.09;95.94
12360;BME280;6244;51.460;7.090;2024-02-26T15:46:08;99537.59;;;6.07;96.00
12360;BME280;6244;51.460;7.090;2024-02-26T15:51:05;99539.44;;;6.05;95.64
12360;BME280;6244;51.460;7.090;2024-02-26T15:56:01;99550.94;;;6.01;95.70
12360;BME280;6244;51.460;7.090;2024-02-26T16:00:59;99557.13;;;5.98;96.63
12360;BME280;6244;51.460;7.090;2024-02-26T16:05:57;99563.19;;;5.99;96.70
12360;BME280;6244;51.460;7.090;2024-02-26T16:10:54;99579.81;;;5.96;96.96
12360;BME280;6244;51.460;7.090;2024-02-26T16:15:58;99591.19;;;5.94;97.14
12360;BME280;6244;51.460;7.090;2024-02-26T16:20:58;99593.72;;;5.95;97.72
12360;BME280;6244;51.460;7.090;2024-02-26T16:25:55;99605.91;;;5.95;97.85
12360;BME280;6244;51.460;7.090;2024-02-26T16:30:51;99606.19;;;5.88;97.87
12360;BME280;6244;51.460;7.090;2024-02-26T16:35:49;99618.34;;;5.88;97.70
12360;BME280;6244;51.460;7.090;2024-02-26T16:40:47;99624.75;;;5.81;96.95
12360;BME280;6244;51.460;7.090;2024-02-26T16:45:43;99633.28;;;5.84;97.54
12360;BME280;6244;51.460;7.090;2024-02-26T16:50:40;99642.13;;;5.80;97.03
12360;BME280;6244;51.460;7.090;2024-02-26T16:55:36;99655.88;;;5.84;96.78
12360;BME280;6244;51.460;7.090;2024-02-26T17:00:34;99661.78;;;5.87;96.61
12360;BME280;6244;51.460;7.090;2024-02-26T17:05:31;99671.34;;;5.87;97.63
12360;BME280;6244;51.460;7.090;2024-02-26T17:10:27;99681.75;;;5.87;97.79
12360;BME280;6244;51.460;7.090;2024-02-26T17:15:24;99690.63;;;5.83;98.91
12360;BME280;6244;51.460;7.090;2024-02-26T17:20:22;99701.03;;;5.83;100.00
12360;BME280;6244;51.460;7.090;2024-02-26T17:25:19;99707.38;;;5.77;100.00
12360;BME280;6244;51.460;7.090;2024-02-26T17:30:15;99717.69;;;5.79;100.00
12360;BME280;6244;51.460;7.090;2024-02-26T17:35:12;99725.09;;;5.69;100.00
12360;BME280;6244;51.460;7.090;2024-02-26T17:40:12;99736.47;;;5.67;100.00
12360;BME280;6244;51.460;7.090;2024-02-26T17:45:10;99741.34;;;5.74;100.00
12360;BME280;6244;51.460;7.090;2024-02-26T17:50:07;99747.34;;;5.95;100.00
12360;BME280;6244;51.460;7.090;2024-02-26T17:55:05;99764.94;;;6.09;100.00
12360;BME280;6244;51.460;7.090;2024-02-26T18:00:03;99775.00;;;6.16;100.00
12360;BME280;6244;51.460;7.090;2024-02-26T18:05:00;99777.41;;;6.21;100.00
12360;BME280;6244;51.460;7.090;2024-02-26T18:09:57;99797.03;;;6.28;100.00
12360;BME280;6244;51.460;7.090;2024-02-26T18:14:53;99801.22;;;6.31;99.76
12360;BME280;6244;51.460;7.090;2024-02-26T18:19:51;99818.34;;;6.36;99.37
12360;BME280;6244;51.460;7.090;2024-02-26T18:24:47;99827.00;;;6.37;98.90
12360;BME280;6244;51.460;7.090;2024-02-26T18:29:44;99834.00;;;6.36;99.53
12360;BME280;6244;51.460;7.090;2024-02-26T18:34:40;99843.00;;;6.29;99.85
12360;BME280;6244;51.460;7.090;2024-02-26T18:39:39;99852.66;;;6.27;100.00
12360;BME280;6244;51.460;7.090;2024-02-26T18:44:36;99861.47;;;6.25;100.00
12360;BME280;6244;51.460;7.090;2024-02-26T18:49:38;99872.88;;;6.22;100.00
12360;BME280;6244;51.460;7.090;2024-02-26T18:54:34;99888.19;;;6.28;100.00
12360;BME280;6244;51.460;7.090;2024-02-26T18:59:35;99896.16;;;6.25;100.00
12360;BME280;6244;51.460;7.090;2024-02-26T19:04:31;99905.75;;;6.25;100.00
12360;BME280;6244;51.460;7.090;2024-02-26T19:09:30;99909.25;;;6.24;100.00
12360;BME280;6244;51.460;7.090;2024-02-26T19:14:26;99914.66;;;6.19;100.00
12360;BME280;6244;51.460;7.090;2024-02-26T19:19:25;99921.53;;;6.22;100.00
12360;BME280;6244;51.460;7.090;2024-02-26T19:24:21;99930.44;;;6.16;100.00
12360;BME280;6244;51.460;7.090;2024-02-26T19:29:18;99936.41;;;6.18;100.00
12360;BME280;6244;51.460;7.090;2024-02-26T19:34:14;99934.03;;;6.13;100.00
12360;BME280;6244;51.460;7.090;2024-02-26T19:39:12;99939.38;;;6.10;100.00
12360;BME280;6244;51.460;7.090;2024-02-26T19:44:11;99959.94;;;6.16;100.00
12360;BME280;6244;51.460;7.090;2024-02-26T19:49:08;99964.31;;;6.16;100.00
12360;BME280;6244;51.460;7.090;2024-02-26T19:54:05;99966.34;;;6.09;100.00
12360;BME280;6244;51.460;7.090;2024-02-26T19:59:03;99976.69;;;6.11;100.00
12360;BME280;6244;51.460;7.090;2024-02-26T20:03:59;99985.34;;;6.11;100.00
12360;BME280;6244;51.460;7.090;2024-02-26T20:08:56;99988.81;;;6.12;100.00
12360;BME280;6244;51.460;7.090;2024-02-26T20:13:53;99995.09;;;6.06;100.00
12360;BME280;6244;51.460;7.090;2024-02-26T20:18:55;99997.00;;;6.03;100.00
12360;BME280;6244;51.460;7.090;2024-02-26T20:23:53;99997.97;;;6.00;100.00
12360;BME280;6244;51.460;7.090;2024-02-26T20:28:53;100010.09;;;6.01;100.00
12360;BME280;6244;51.460;7.090;2024-02-26T20:33:52;100013.84;;;5.94;100.00
12360;BME280;6244;51.460;7.090;2024-02-26T20:38:49;100031.78;;;6.02;100.00
12360;BME280;6244;51.460;7.090;2024-02-26T20:43:48;100037.97;;;5.99;100.00
12360;BME280;6244;51.460;7.090;2024-02-26T20:48:45;100051.16;;;5.95;100.00
12360;BME280;6244;51.460;7.090;2024-02-26T20:53:43;100044.56;;;5.86;100.00
12360;BME280;6244;51.460;7.090;2024-02-26T20:58:42;100056.31;;;5.96;100.00
12360;BME280;6244;51.460;7.090;2024-02-26T21:03:40;100066.00;;;5.93;100.00
12360;BME280;6244;51.460;7.090;2024-02-26T21:08:37;100085.25;;;5.88;100.00
12360;BME280;6244;51.460;7.090;2024-02-26T21:13:35;100083.69;;;5.84;100.00
12360;BME280;6244;51.460;7.090;2024-02-26T21:18:32;100082.22;;;5.77;100.00
12360;BME280;6244;51.460;7.090;2024-02-26T21:23:30;100098.88;;;5.73;100.00
12360;BME280;6244;51.460;7.090;2024-02-26T21:28:27;100112.88;;;5.71;100.00
12360;BME280;6244;51.460;7.090;2024-02-26T21:33:25;100118.88;;;5.73;100.00
12360;BME280;6244;51.460;7.090;2024-02-26T21:38:22;100124.13;;;5.71;100.00
12360;BME280;6244;51.460;7.090;2024-02-26T21:43:18;100137.25;;;5.68;100.00
12360;BME280;6244;51.460;7.090;2024-02-26T21:48:15;100146.75;;;5.69;100.00
12360;BME280;6244;51.460;7.090;2024-02-26T21:53:13;100153.78;;;5.67;100.00
12360;BME280;6244;51.460;7.090;2024-02-26T21:58:09;100160.88;;;5.64;100.00
12360;BME280;6244;51.460;7.090;2024-02-26T22:03:06;100176.59;;;5.60;100.00
12360;BME280;6244;51.460;7.090;2024-02-26T22:08:03;100173.25;;;5.57;100.00
12360;BME280;6244;51.460;7.090;2024-02-26T22:13:01;100187.94;;;5.58;100.00
12360;BME280;6244;51.460;7.090;2024-02-26T22:17:58;100186.44;;;5.52;100.00
12360;BME280;6244;51.460;7.090;2024-02-26T22:22:55;100200.44;;;5.50;100.00
12360;BME280;6244;51.460;7.090;2024-02-26T22:27:52;100203.19;;;5.45;100.00
12360;BME280;6244;51.460;7.090;2024-02-26T22:32:50;100214.41;;;5.47;100.00
12360;BME280;6244;51.460;7.090;2024-02-26T22:37:49;100218.69;;;5.48;100.00
12360;BME280;6244;51.460;7.090;2024-02-26T22:42:47;100215.34;;;5.45;100.00
12360;BME280;6244;51.460;7.090;2024-02-26T22:47:51;100215.47;;;5.42;100.00
12360;BME280;6244;51.460;7.090;2024-02-26T22:52:48;100221.50;;;5.42;100.00
12360;BME280;6244;51.460;7.090;2024-02-26T22:57:46;100233.53;;;5.46;100.00
12360;BME280;6244;51.460;7.090;2024-02-26T23:02:42;100243.31;;;5.40;100.00
12360;BME280;6244;51.460;7.090;2024-02-26T23:07:41;100249.41;;;5.39;100.00
12360;BME280;6244;51.460;7.090;2024-02-26T23:12:37;100244.16;;;5.40;100.00
12360;BME280;6244;51.460;7.090;2024-02-26T23:17:34;100246.03;;;5.37;100.00
12360;BME280;6244;51.460;7.090;2024-02-26T23:22:31;100264.34;;;5.34;100.00
12360;BME280;6244;51.460;7.090;2024-02-26T23:27:30;100267.81;;;5.34;100.00
12360;BME280;6244;51.460;7.090;2024-02-26T23:32:26;100263.38;;;5.36;100.00
12360;BME280;6244;51.460;7.090;2024-02-26T23:37:23;100274.63;;;5.37;100.00
12360;BME280;6244;51.460;7.090;2024-02-26T23:42:20;100279.06;;;5.35;100.00
12360;BME280;6244;51.460;7.090;2024-02-26T23:47:18;100281.66;;;5.35;100.00
12360;BME280;6244;51.460;7.090;2024-02-26T23:52:15;100279.97;;;5.34;100.00
12360;BME280;6244;51.460;7.090;2024-02-26T23:57:11;100284.47;;;5.28;100.00
